sensor_id;sensor_type;location;lat;lon;timestamp;P1;durP1;ratioP1;P2;durP2;ratioP2
8737;SDS011;4405;49.272;8.590;2023-05-08T20:38:55;5.77;;;4.60;;
8737;SDS011;4405;49.272;8.590;2023-05-08T20:41:21;4.47;;;4.13;;
8737;SDS011;4405;49.272;8.590;2023-05-08T20:43:48;4.23;;;3.93;;
8737;SDS011;4405;49.272;8.590;2023-05-08T20:46:14;5.30;;;4.43;;
8737;SDS011;4405;49.272;8.590;2023-05-08T20:48:41;4.70;;;4.27;;
8737;SDS011;4405;49.272;8.590;2023-05-08T20:51:07;4.63;;;4.23;;
8737;SDS011;4405;49.272;8.590;2023-05-08T20:53:33;4.73;;;4.43;;
8737;SDS011;4405;49.272;8.590;2023-05-08T20:56:01;4.90;;;4.60;;
8737;SDS011;4405;49.272;8.590;2023-05-08T20:58:28;4.60;;;4.20;;
8737;SDS011;4405;49.272;8.590;2023-05-08T21:00:54;4.70;;;4.40;;
8737;SDS011;4405;49.272;8.590;2023-05-08T21:03:21;4.60;;;4.30;;
8737;SDS011;4405;49.272;8.590;2023-05-08T21:05:47;4.87;;;4.43;;
8737;SDS011;4405;49.272;8.590;2023-05-08T21:08:13;5.60;;;4.80;;
8737;SDS011;4405;49.272;8.590;2023-05-08T21:10:40;5.23;;;4.83;;
8737;SDS011;4405;49.272;8.590;2023-05-08T21:13:07;4.73;;;4.37;;
8737;SDS011;4405;49.272;8.590;2023-05-08T21:15:34;5.00;;;4.70;;
8737;SDS011;4405;49.272;8.590;2023-05-08T21:18:00;4.90;;;4.60;;
8737;SDS011;4405;49.272;8.590;2023-05-08T21:20:26;5.67;;;5.23;;
8737;SDS011;4405;49.272;8.590;2023-05-08T21:22:53;5.30;;;5.00;;
8737;SDS011;4405;49.272;8.590;2023-05-08T21:25:19;5.47;;;5.17;;
8737;SDS011;4405;49.272;8.590;2023-05-08T21:27:46;5.67;;;5.37;;
8737;SDS011;4405;49.272;8.590;2023-05-08T21:30:14;5.27;;;5.00;;
8737;SDS011;4405;49.272;8.590;2023-05-08T21:32:40;5.47;;;5.17;;
8737;SDS011;4405;49.272;8.590;2023-05-08T21:35:07;5.50;;;5.20;;
8737;SDS011;4405;49.272;8.590;2023-05-08T21:37:33;5.57;;;5.27;;
8737;SDS011;4405;49.272;8.590;2023-05-08T21:40:01;6.00;;;5.53;;
8737;SDS011;4405;49.272;8.590;2023-05-08T21:42:28;5.93;;;5.47;;
8737;SDS011;4405;49.272;8.590;2023-05-08T21:44:54;5.87;;;5.47;;
8737;SDS011;4405;49.272;8.590;2023-05-08T21:47:22;5.10;;;4.80;;
8737;SDS011;4405;49.272;8.590;2023-05-08T21:49:51;5.73;;;5.37;;
8737;SDS011;4405;49.272;8.590;2023-05-08T21:52:18;5.63;;;5.33;;
8737;SDS011;4405;49.272;8.590;2023-05-08T21:54:46;5.67;;;5.37;;
8737;SDS011;4405;49.272;8.590;2023-05-08T21:57:12;6.23;;;5.83;;
8737;SDS011;4405;49.272;8.590;2023-05-08T21:59:38;5.73;;;5.43;;
8737;SDS011;4405;49.272;8.590;2023-05-08T22:02:05;6.03;;;5.53;;
8737;SDS011;4405;49.272;8.590;2023-05-08T22:04:32;5.87;;;5.47;;
8737;SDS011;4405;49.272;8.590;2023-05-08T22:06:59;6.23;;;5.77;;
8737;SDS011;4405;49.272;8.590;2023-05-08T22:09:25;5.87;;;5.33;;
8737;SDS011;4405;49.272;8.590;2023-05-08T22:11:51;5.80;;;5.30;;
8737;SDS011;4405;49.272;8.590;2023-05-08T22:14:18;5.83;;;5.37;;
8737;SDS011;4405;49.272;8.590;2023-05-08T22:16:44;5.97;;;5.57;;
8737;SDS011;4405;49.272;8.590;2023-05-08T22:19:11;5.87;;;5.57;;
8737;SDS011;4405;49.272;8.590;2023-05-08T22:21:39;6.00;;;5.50;;
8737;SDS011;4405;49.272;8.590;2023-05-08T22:24:05;5.80;;;5.50;;
8737;SDS011;4405;49.272;8.590;2023-05-08T22:26:32;5.87;;;5.57;;
8737;SDS011;4405;49.272;8.590;2023-05-08T22:28:58;5.53;;;5.23;;
8737;SDS011;4405;49.272;8.590;2023-05-08T22:31:24;6.50;;;6.10;;
8737;SDS011;4405;49.272;8.590;2023-05-08T22:33:51;6.17;;;5.77;;
8737;SDS011;4405;49.272;8.590;2023-05-08T22:36:17;6.10;;;5.60;;
8737;SDS011;4405;49.272;8.590;2023-05-08T22:38:45;6.00;;;5.70;;
8737;SDS011;4405;49.272;8.590;2023-05-08T22:41:11;5.90;;;5.50;;
8737;SDS011;4405;49.272;8.590;2023-05-08T22:43:37;6.13;;;5.73;;
8737;SDS011;4405;49.272;8.590;2023-05-08T22:46:04;6.03;;;5.63;;
8737;SDS011;4405;49.272;8.590;2023-05-08T22:48:30;6.13;;;5.57;;
8737;SDS011;4405;49.272;8.590;2023-05-08T22:50:57;6.30;;;6.00;;
8737;SDS011;4405;49.272;8.590;2023-05-08T22:53:23;6.27;;;5.97;;
8737;SDS011;4405;49.272;8.590;2023-05-08T22:55:51;6.10;;;5.60;;
8737;SDS011;4405;49.272;8.590;2023-05-08T22:58:17;6.33;;;5.93;;
8737;SDS011;4405;49.272;8.590;2023-05-08T23:00:43;6.43;;;5.83;;
8737;SDS011;4405;49.272;8.590;2023-05-08T23:03:10;6.13;;;5.73;;
8737;SDS011;4405;49.272;8.590;2023-05-08T23:05:36;6.60;;;6.20;;
8737;SDS011;4405;49.272;8.590;2023-05-08T23:08:02;6.10;;;5.80;;
8737;SDS011;4405;49.272;8.590;2023-05-08T23:10:29;6.33;;;5.93;;
8737;SDS011;4405;49.272;8.590;2023-05-08T23:12:57;6.10;;;5.70;;
8737;SDS011;4405;49.272;8.590;2023-05-08T23:15:23;6.20;;;5.80;;
8737;SDS011;4405;49.272;8.590;2023-05-08T23:17:49;6.40;;;5.93;;
8737;SDS011;4405;49.272;8.590;2023-05-08T23:20:16;5.67;;;5.37;;
8737;SDS011;4405;49.272;8.590;2023-05-08T23:22:42;6.20;;;5.80;;
8737;SDS011;4405;49.272;8.590;2023-05-08T23:25:08;6.50;;;6.00;;
8737;SDS011;4405;49.272;8.590;2023-05-08T23:27:35;6.00;;;5.70;;
8737;SDS011;4405;49.272;8.590;2023-05-08T23:30:03;6.20;;;5.80;;
8737;SDS011;4405;49.272;8.590;2023-05-08T23:32:30;6.13;;;5.83;;
8737;SDS011;4405;49.272;8.590;2023-05-08T23:34:56;6.10;;;5.80;;
8737;SDS011;4405;49.272;8.590;2023-05-08T23:37:22;6.07;;;5.77;;
8737;SDS011;4405;49.272;8.590;2023-05-08T23:39:49;6.30;;;5.90;;
8737;SDS011;4405;49.272;8.590;2023-05-08T23:42:15;5.87;;;5.57;;
8737;SDS011;4405;49.272;8.590;2023-05-08T23:44:41;6.27;;;5.87;;
8737;SDS011;4405;49.272;8.590;2023-05-08T23:47:09;6.00;;;5.70;;
8737;SDS011;4405;49.272;8.590;2023-05-08T23:49:35;6.30;;;5.90;;
8737;SDS011;4405;49.272;8.590;2023-05-08T23:52:02;6.83;;;6.23;;
8737;SDS011;4405;49.272;8.590;2023-05-08T23:54:28;6.37;;;5.90;;
8737;SDS011;4405;49.272;8.590;2023-05-08T23:56:54;6.30;;;5.90;;
8737;SDS011;4405;49.272;8.590;2023-05-08T23:59:21;5.87;;;5.57;;
